sensor_id;sensor_type;location;lat;lon;timestamp;temperature;humidity
1830;DHT22;914;48.118;11.600;2022-09-02T00:01:14;16.80;98.00
1830;DHT22;914;48.118;11.600;2022-09-02T00:03:40;16.80;98.10
1830;DHT22;914;48.118;11.600;2022-09-02T00:06:06;16.80;98.40
1830;DHT22;914;48.118;11.600;2022-09-02T00:08:31;16.80;98.00
1830;DHT22;914;48.118;11.600;2022-09-02T00:11:00;16.90;98.10
1830;DHT22;914;48.118;11.600;2022-09-02T00:13:27;16.70;98.20
1830;DHT22;914;48.118;11.600;2022-09-02T00:15:53;16.70;98.50
1830;DHT22;914;48.118;11.600;2022-09-02T00:18:18;16.70;98.50
1830;DHT22;914;48.118;11.600;2022-09-02T00:20:46;16.80;98.60
1830;DHT22;914;48.118;11.600;2022-09-02T00:23:12;16.80;98.50
1830;DHT22;914;48.118;11.600;2022-09-02T00:25:39;16.90;98.40
1830;DHT22;914;48.118;11.600;2022-09-02T00:28:05;16.80;98.30
1830;DHT22;914;48.118;11.600;2022-09-02T00:30:33;16.70;98.50
1830;DHT22;914;48.118;11.600;2022-09-02T00:33:00;16.80;98.60
1830;DHT22;914;48.118;11.600;2022-09-02T00:35:26;16.70;98.30
1830;DHT22;914;48.118;11.600;2022-09-02T00:37:52;16.70;98.40
1830;DHT22;914;48.118;11.600;2022-09-02T00:40:18;16.50;98.60
1830;DHT22;914;48.118;11.600;2022-09-02T00:42:44;16.40;99.00
1830;DHT22;914;48.118;11.600;2022-09-02T00:45:10;16.40;99.00
1830;DHT22;914;48.118;11.600;2022-09-02T00:47:37;16.30;98.90
1830;DHT22;914;48.118;11.600;2022-09-02T00:50:07;16.20;99.00
1830;DHT22;914;48.118;11.600;2022-09-02T00:52:40;16.30;99.20
1830;DHT22;914;48.118;11.600;2022-09-02T00:55:15;16.30;99.20
1830;DHT22;914;48.118;11.600;2022-09-02T00:57:46;16.40;99.30
1830;DHT22;914;48.118;11.600;2022-09-02T01:00:21;16.40;99.00
1830;DHT22;914;48.118;11.600;2022-09-02T01:02:57;16.40;99.10
1830;DHT22;914;48.118;11.600;2022-09-02T01:05:25;16.40;99.00
1830;DHT22;914;48.118;11.600;2022-09-02T01:07:54;16.20;99.00
1830;DHT22;914;48.118;11.600;2022-09-02T01:10:26;16.20;99.10
1830;DHT22;914;48.118;11.600;2022-09-02T01:12:57;16.20;99.30
1830;DHT22;914;48.118;11.600;2022-09-02T01:15:24;16.40;99.40
1830;DHT22;914;48.118;11.600;2022-09-02T01:17:51;16.30;99.40
1830;DHT22;914;48.118;11.600;2022-09-02T01:20:20;16.30;99.30
1830;DHT22;914;48.118;11.600;2022-09-02T01:22:46;16.30;99.50
1830;DHT22;914;48.118;11.600;2022-09-02T01:25:19;16.30;99.30
1830;DHT22;914;48.118;11.600;2022-09-02T01:27:46;16.40;99.50
1830;DHT22;914;48.118;11.600;2022-09-02T01:30:17;16.40;99.20
1830;DHT22;914;48.118;11.600;2022-09-02T01:32:44;16.30;99.60
1830;DHT22;914;48.118;11.600;2022-09-02T01:35:10;16.30;99.40
1830;DHT22;914;48.118;11.600;2022-09-02T01:37:37;16.30;99.30
1830;DHT22;914;48.118;11.600;2022-09-02T01:40:06;16.30;99.60
1830;DHT22;914;48.118;11.600;2022-09-02T01:42:32;16.30;99.50
1830;DHT22;914;48.118;11.600;2022-09-02T01:44:57;16.20;99.50
1830;DHT22;914;48.118;11.600;2022-09-02T01:47:24;16.10;99.60
1830;DHT22;914;48.118;11.600;2022-09-02T01:49:50;16.00;99.80
1830;DHT22;914;48.118;11.600;2022-09-02T01:52:18;16.00;99.80
1830;DHT22;914;48.118;11.600;2022-09-02T01:54:44;16.00;99.90
1830;DHT22;914;48.118;11.600;2022-09-02T01:57:11;16.10;99.90
1830;DHT22;914;48.118;11.600;2022-09-02T01:59:36;16.10;99.90
1830;DHT22;914;48.118;11.600;2022-09-02T02:02:03;16.10;99.60
1830;DHT22;914;48.118;11.600;2022-09-02T02:04:29;16.20;99.80
1830;DHT22;914;48.118;11.600;2022-09-02T02:06:55;16.10;99.80
1830;DHT22;914;48.118;11.600;2022-09-02T02:09:21;16.00;99.90
1830;DHT22;914;48.118;11.600;2022-09-02T02:11:47;15.90;99.90
1830;DHT22;914;48.118;11.600;2022-09-02T02:14:13;15.90;99.90
1830;DHT22;914;48.118;11.600;2022-09-02T02:16:39;15.80;99.90
1830;DHT22;914;48.118;11.600;2022-09-02T02:19:05;15.80;99.90
1830;DHT22;914;48.118;11.600;2022-09-02T02:21:31;15.80;99.90
1830;DHT22;914;48.118;11.600;2022-09-02T02:23:57;15.90;99.90
1830;DHT22;914;48.118;11.600;2022-09-02T02:26:26;15.90;99.90
1830;DHT22;914;48.118;11.600;2022-09-02T02:28:52;16.00;99.90
1830;DHT22;914;48.118;11.600;2022-09-02T02:31:18;15.90;99.90
1830;DHT22;914;48.118;11.600;2022-09-02T02:33:44;15.80;99.90
1830;DHT22;914;48.118;11.600;2022-09-02T02:36:10;15.80;99.90
1830;DHT22;914;48.118;11.600;2022-09-02T02:38:37;15.80;99.90
1830;DHT22;914;48.118;11.600;2022-09-02T02:41:03;15.80;99.90
1830;DHT22;914;48.118;11.600;2022-09-02T02:43:34;15.80;99.90
1830;DHT22;914;48.118;11.600;2022-09-02T02:46:00;15.80;99.90
1830;DHT22;914;48.118;11.600;2022-09-02T02:48:25;15.90;99.90
1830;DHT22;914;48.118;11.600;2022-09-02T02:50:51;15.80;99.90
1830;DHT22;914;48.118;11.600;2022-09-02T02:53:18;15.90;99.90
1830;DHT22;914;48.118;11.600;2022-09-02T02:55:44;15.80;99.90
1830;DHT22;914;48.118;11.600;2022-09-02T02:58:10;15.90;99.90
1830;DHT22;914;48.118;11.600;2022-09-02T03:00:36;15.70;99.90
1830;DHT22;914;48.118;11.600;2022-09-02T03:03:07;15.80;99.90
1830;DHT22;914;48.118;11.600;2022-09-02T03:05:34;15.70;99.90
1830;DHT22;914;48.118;11.600;2022-09-02T03:08:03;15.60;99.90
1830;DHT22;914;48.118;11.600;2022-09-02T03:10:30;15.60;99.90
1830;DHT22;914;48.118;11.600;2022-09-02T03:12:58;15.60;99.90
1830;DHT22;914;48.118;11.600;2022-09-02T03:15:25;15.60;99.90
1830;DHT22;914;48.118;11.600;2022-09-02T03:17:51;15.60;99.90
1830;DHT22;914;48.118;11.600;2022-09-02T03:20:17;15.50;99.90
1830;DHT22;914;48.118;11.600;2022-09-02T03:22:45;15.50;99.90
1830;DHT22;914;48.118;11.600;2022-09-02T03:25:15;15.40;99.90
1830;DHT22;914;48.118;11.600;2022-09-02T03:27:41;15.40;99.90
1830;DHT22;914;48.118;11.600;2022-09-02T03:30:13;15.50;99.90
1830;DHT22;914;48.118;11.600;2022-09-02T03:32:40;15.60;99.90
1830;DHT22;914;48.118;11.600;2022-09-02T03:35:08;15.50;99.90
1830;DHT22;914;48.118;11.600;2022-09-02T03:37:34;15.50;99.90
1830;DHT22;914;48.118;11.600;2022-09-02T03:40:02;15.50;99.90
1830;DHT22;914;48.118;11.600;2022-09-02T03:42:28;15.40;99.90
1830;DHT22;914;48.118;11.600;2022-09-02T03:44:54;15.40;99.90
1830;DHT22;914;48.118;11.600;2022-09-02T03:47:19;15.30;99.90
1830;DHT22;914;48.118;11.600;2022-09-02T03:49:46;15.20;99.90
1830;DHT22;914;48.118;11.600;2022-09-02T03:52:12;15.20;99.90
1830;DHT22;914;48.118;11.600;2022-09-02T03:54:37;15.20;99.90
1830;DHT22;914;48.118;11.600;2022-09-02T03:57:04;15.10;99.90
1830;DHT22;914;48.118;11.600;2022-09-02T03:59:29;15.20;99.90
1830;DHT22;914;48.118;11.600;2022-09-02T04:01:56;15.20;99.90
1830;DHT22;914;48.118;11.600;2022-09-02T04:04:21;15.10;99.90
1830;DHT22;914;48.118;11.600;2022-09-02T04:06:47;15.10;99.90
1830;DHT22;914;48.118;11.600;2022-09-02T04:09:13;15.20;99.90
1830;DHT22;914;48.118;11.600;2022-09-02T04:11:39;15.10;99.90
1830;DHT22;914;48.118;11.600;2022-09-02T04:14:07;15.10;99.90
1830;DHT22;914;48.118;11.600;2022-09-02T04:16:34;15.00;99.90
1830;DHT22;914;48.118;11.600;2022-09-02T04:19:00;15.00;99.90
1830;DHT22;914;48.118;11.600;2022-09-02T04:21:27;15.00;99.90
1830;DHT22;914;48.118;11.600;2022-09-02T04:23:53;15.10;99.90
1830;DHT22;914;48.118;11.600;2022-09-02T04:26:19;15.10;99.90
1830;DHT22;914;48.118;11.600;2022-09-02T04:28:46;15.10;99.90
1830;DHT22;914;48.118;11.600;2022-09-02T04:31:13;15.10;99.90
1830;DHT22;914;48.118;11.600;2022-09-02T04:33:40;15.00;99.90
1830;DHT22;914;48.118;11.600;2022-09-02T04:36:08;15.10;99.90
1830;DHT22;914;48.118;11.600;2022-09-02T04:38:34;15.00;99.90
1830;DHT22;914;48.118;11.600;2022-09-02T04:41:08;15.00;99.90
1830;DHT22;914;48.118;11.600;2022-09-02T04:43:34;14.90;99.90
1830;DHT22;914;48.118;11.600;2022-09-02T04:46:03;15.00;99.90
1830;DHT22;914;48.118;11.600;2022-09-02T04:48:29;15.00;99.90
1830;DHT22;914;48.118;11.600;2022-09-02T04:50:55;15.00;99.90
1830;DHT22;914;48.118;11.600;2022-09-02T04:53:21;15.10;99.90
1830;DHT22;914;48.118;11.600;2022-09-02T04:55:46;14.90;99.90
1830;DHT22;914;48.118;11.600;2022-09-02T04:58:13;14.90;99.90
1830;DHT22;914;48.118;11.600;2022-09-02T05:00:39;14.90;99.90
1830;DHT22;914;48.118;11.600;2022-09-02T05:03:05;14.80;99.90
1830;DHT22;914;48.118;11.600;2022-09-02T05:05:32;14.90;99.90
1830;DHT22;914;48.118;11.600;2022-09-02T05:07:57;14.80;99.90
1830;DHT22;914;48.118;11.600;2022-09-02T05:10:23;15.00;99.90
1830;DHT22;914;48.118;11.600;2022-09-02T05:12:49;15.00;99.90
1830;DHT22;914;48.118;11.600;2022-09-02T05:15:16;15.10;99.90
1830;DHT22;914;48.118;11.600;2022-09-02T05:17:41;15.10;99.90
1830;DHT22;914;48.118;11.600;2022-09-02T05:20:08;15.00;99.90
1830;DHT22;914;48.118;11.600;2022-09-02T05:22:35;15.10;99.90
1830;DHT22;914;48.118;11.600;2022-09-02T05:25:02;15.00;99.90
1830;DHT22;914;48.118;11.600;2022-09-02T05:27:28;15.10;99.90
1830;DHT22;914;48.118;11.600;2022-09-02T05:29:55;14.80;99.90
1830;DHT22;914;48.118;11.600;2022-09-02T05:32:21;14.90;99.90
1830;DHT22;914;48.118;11.600;2022-09-02T05:34:47;14.90;99.90
1830;DHT22;914;48.118;11.600;2022-09-02T05:37:14;15.10;99.90
1830;DHT22;914;48.118;11.600;2022-09-02T05:39:40;15.00;99.90
1830;DHT22;914;48.118;11.600;2022-09-02T05:42:06;15.10;99.90
1830;DHT22;914;48.118;11.600;2022-09-02T05:44:31;15.30;99.90
1830;DHT22;914;48.118;11.600;2022-09-02T05:46:57;15.40;99.90
1830;DHT22;914;48.118;11.600;2022-09-02T05:49:23;15.40;99.90
1830;DHT22;914;48.118;11.600;2022-09-02T05:51:56;15.40;99.90
1830;DHT22;914;48.118;11.600;2022-09-02T05:54:31;15.50;99.90
1830;DHT22;914;48.118;11.600;2022-09-02T05:57:01;15.60;99.90
1830;DHT22;914;48.118;11.600;2022-09-02T05:59:29;15.80;99.90
1830;DHT22;914;48.118;11.600;2022-09-02T06:01:55;15.70;99.90
1830;DHT22;914;48.118;11.600;2022-09-02T06:04:22;15.60;99.90
1830;DHT22;914;48.118;11.600;2022-09-02T06:06:48;15.70;99.90
1830;DHT22;914;48.118;11.600;2022-09-02T06:09:17;15.80;99.90
1830;DHT22;914;48.118;11.600;2022-09-02T06:11:43;15.80;99.90
1830;DHT22;914;48.118;11.600;2022-09-02T06:14:14;15.90;99.90
1830;DHT22;914;48.118;11.600;2022-09-02T06:16:41;16.10;99.90
1830;DHT22;914;48.118;11.600;2022-09-02T06:19:07;15.80;99.90
1830;DHT22;914;48.118;11.600;2022-09-02T06:21:34;15.90;99.90
1830;DHT22;914;48.118;11.600;2022-09-02T06:23:59;15.90;99.90
1830;DHT22;914;48.118;11.600;2022-09-02T06:26:25;16.00;99.90
1830;DHT22;914;48.118;11.600;2022-09-02T06:28:51;16.20;99.90
1830;DHT22;914;48.118;11.600;2022-09-02T06:31:19;16.10;99.90
1830;DHT22;914;48.118;11.600;2022-09-02T06:33:47;16.30;99.90
1830;DHT22;914;48.118;11.600;2022-09-02T06:36:17;15.90;99.90
1830;DHT22;914;48.118;11.600;2022-09-02T06:38:47;16.10;99.90
1830;DHT22;914;48.118;11.600;2022-09-02T06:41:15;16.20;99.90
1830;DHT22;914;48.118;11.600;2022-09-02T06:43:42;16.30;99.90
1830;DHT22;914;48.118;11.600;2022-09-02T06:46:12;16.40;99.90
1830;DHT22;914;48.118;11.600;2022-09-02T06:48:38;15.90;99.90
1830;DHT22;914;48.118;11.600;2022-09-02T06:51:04;16.10;99.90
1830;DHT22;914;48.118;11.600;2022-09-02T06:53:29;16.30;99.90
1830;DHT22;914;48.118;11.600;2022-09-02T06:55:55;16.60;99.90
1830;DHT22;914;48.118;11.600;2022-09-02T06:58:21;16.80;99.90
1830;DHT22;914;48.118;11.600;2022-09-02T07:00:46;17.00;99.90
1830;DHT22;914;48.118;11.600;2022-09-02T07:03:12;17.00;99.90
1830;DHT22;914;48.118;11.600;2022-09-02T07:06:00;17.10;99.90
1830;DHT22;914;48.118;11.600;2022-09-02T07:08:27;17.30;99.90
1830;DHT22;914;48.118;11.600;2022-09-02T07:10:52;16.70;99.90
1830;DHT22;914;48.118;11.600;2022-09-02T07:13:19;16.80;99.90
1830;DHT22;914;48.118;11.600;2022-09-02T07:15:44;16.60;99.90
1830;DHT22;914;48.118;11.600;2022-09-02T07:18:10;16.40;99.90
1830;DHT22;914;48.118;11.600;2022-09-02T07:20:36;16.60;99.90
1830;DHT22;914;48.118;11.600;2022-09-02T07:23:02;16.80;99.90
1830;DHT22;914;48.118;11.600;2022-09-02T07:25:29;17.10;99.90
1830;DHT22;914;48.118;11.600;2022-09-02T07:27:55;17.30;99.90
1830;DHT22;914;48.118;11.600;2022-09-02T07:30:21;17.40;99.90
1830;DHT22;914;48.118;11.600;2022-09-02T07:32:47;17.50;99.90
1830;DHT22;914;48.118;11.600;2022-09-02T07:35:13;17.30;99.90
1830;DHT22;914;48.118;11.600;2022-09-02T07:37:39;17.60;99.90
1830;DHT22;914;48.118;11.600;2022-09-02T07:40:07;17.80;99.90
1830;DHT22;914;48.118;11.600;2022-09-02T07:42:32;17.90;99.90
1830;DHT22;914;48.118;11.600;2022-09-02T07:44:58;18.20;99.90
1830;DHT22;914;48.118;11.600;2022-09-02T07:47:24;18.30;99.90
1830;DHT22;914;48.118;11.600;2022-09-02T07:49:49;18.40;99.90
1830;DHT22;914;48.118;11.600;2022-09-02T07:52:15;18.40;99.90
1830;DHT22;914;48.118;11.600;2022-09-02T07:54:41;18.30;99.90
1830;DHT22;914;48.118;11.600;2022-09-02T07:57:07;18.40;99.90
1830;DHT22;914;48.118;11.600;2022-09-02T07:59:33;18.40;99.90
1830;DHT22;914;48.118;11.600;2022-09-02T08:01:59;18.70;99.90
1830;DHT22;914;48.118;11.600;2022-09-02T08:04:24;18.80;99.90
1830;DHT22;914;48.118;11.600;2022-09-02T08:06:51;18.20;99.90
1830;DHT22;914;48.118;11.600;2022-09-02T08:09:17;18.80;99.90
1830;DHT22;914;48.118;11.600;2022-09-02T08:11:45;19.00;99.70
1830;DHT22;914;48.118;11.600;2022-09-02T08:14:14;19.20;99.40
1830;DHT22;914;48.118;11.600;2022-09-02T08:16:41;19.40;98.40
1830;DHT22;914;48.118;11.600;2022-09-02T08:19:07;19.20;98.30
1830;DHT22;914;48.118;11.600;2022-09-02T08:21:33;19.40;97.80
1830;DHT22;914;48.118;11.600;2022-09-02T08:23:59;19.20;97.40
1830;DHT22;914;48.118;11.600;2022-09-02T08:26:25;19.40;97.00
1830;DHT22;914;48.118;11.600;2022-09-02T08:28:53;19.60;97.20
1830;DHT22;914;48.118;11.600;2022-09-02T08:31:19;19.40;96.10
1830;DHT22;914;48.118;11.600;2022-09-02T08:33:45;19.40;96.30
1830;DHT22;914;48.118;11.600;2022-09-02T08:36:10;19.20;95.80
1830;DHT22;914;48.118;11.600;2022-09-02T08:38:42;19.50;95.20
1830;DHT22;914;48.118;11.600;2022-09-02T08:41:45;19.80;95.10
1830;DHT22;914;48.118;11.600;2022-09-02T08:44:18;19.60;95.00
1830;DHT22;914;48.118;11.600;2022-09-02T08:46:45;19.60;95.00
1830;DHT22;914;48.118;11.600;2022-09-02T08:49:23;19.50;92.90
1830;DHT22;914;48.118;11.600;2022-09-02T08:51:55;19.90;93.60
1830;DHT22;914;48.118;11.600;2022-09-02T08:54:26;20.00;93.50
1830;DHT22;914;48.118;11.600;2022-09-02T08:56:55;20.20;92.90
1830;DHT22;914;48.118;11.600;2022-09-02T08:59:22;20.10;92.10
1830;DHT22;914;48.118;11.600;2022-09-02T09:15:45;20.70;92.10
1830;DHT22;914;48.118;11.600;2022-09-02T09:18:19;20.60;91.80
1830;DHT22;914;48.118;11.600;2022-09-02T09:20:48;20.50;91.60
1830;DHT22;914;48.118;11.600;2022-09-02T09:25:54;21.00;91.50
1830;DHT22;914;48.118;11.600;2022-09-02T09:28:21;21.20;90.90
1830;DHT22;914;48.118;11.600;2022-09-02T09:30:47;20.90;90.20
1830;DHT22;914;48.118;11.600;2022-09-02T09:33:15;20.70;91.60
1830;DHT22;914;48.118;11.600;2022-09-02T09:35:53;21.00;91.60
1830;DHT22;914;48.118;11.600;2022-09-02T09:38:29;21.30;91.30
1830;DHT22;914;48.118;11.600;2022-09-02T09:41:16;21.10;90.40
1830;DHT22;914;48.118;11.600;2022-09-02T09:43:43;20.80;90.40
1830;DHT22;914;48.118;11.600;2022-09-02T09:46:26;20.80;90.30
1830;DHT22;914;48.118;11.600;2022-09-02T09:48:53;20.70;91.30
1830;DHT22;914;48.118;11.600;2022-09-02T09:51:19;20.90;90.20
1830;DHT22;914;48.118;11.600;2022-09-02T09:53:45;20.90;91.30
1830;DHT22;914;48.118;11.600;2022-09-02T09:58:45;21.60;90.30
1830;DHT22;914;48.118;11.600;2022-09-02T10:06:42;21.90;90.70
1830;DHT22;914;48.118;11.600;2022-09-02T10:14:20;21.80;85.00
1830;DHT22;914;48.118;11.600;2022-09-02T10:20:10;22.30;86.20
1830;DHT22;914;48.118;11.600;2022-09-02T10:22:57;22.30;85.90
1830;DHT22;914;48.118;11.600;2022-09-02T10:37:19;22.20;83.30
1830;DHT22;914;48.118;11.600;2022-09-02T10:40:09;21.90;82.90
1830;DHT22;914;48.118;11.600;2022-09-02T10:42:53;22.10;83.20
1830;DHT22;914;48.118;11.600;2022-09-02T10:53:31;22.50;80.30
1830;DHT22;914;48.118;11.600;2022-09-02T10:56:01;22.60;83.20
1830;DHT22;914;48.118;11.600;2022-09-02T10:58:49;22.20;83.90
1830;DHT22;914;48.118;11.600;2022-09-02T11:01:35;22.30;84.40
1830;DHT22;914;48.118;11.600;2022-09-02T11:04:07;22.60;81.80
1830;DHT22;914;48.118;11.600;2022-09-02T11:06:40;22.90;80.80
1830;DHT22;914;48.118;11.600;2022-09-02T11:11:46;23.40;84.10
1830;DHT22;914;48.118;11.600;2022-09-02T11:14:29;23.40;81.10
1830;DHT22;914;48.118;11.600;2022-09-02T11:17:18;23.70;83.00
1830;DHT22;914;48.118;11.600;2022-09-02T11:19:51;23.70;81.30
1830;DHT22;914;48.118;11.600;2022-09-02T11:25:13;23.10;78.00
1830;DHT22;914;48.118;11.600;2022-09-02T11:27:58;23.50;81.20
1830;DHT22;914;48.118;11.600;2022-09-02T11:30:34;23.70;80.70
1830;DHT22;914;48.118;11.600;2022-09-02T11:33:17;23.20;76.30
1830;DHT22;914;48.118;11.600;2022-09-02T11:35:44;22.80;76.50
1830;DHT22;914;48.118;11.600;2022-09-02T11:38:31;22.80;78.50
1830;DHT22;914;48.118;11.600;2022-09-02T11:43:56;23.70;79.50
1830;DHT22;914;48.118;11.600;2022-09-02T11:52:16;24.40;79.20
1830;DHT22;914;48.118;11.600;2022-09-02T11:54:45;24.10;73.50
1830;DHT22;914;48.118;11.600;2022-09-02T11:57:22;24.60;79.70
1830;DHT22;914;48.118;11.600;2022-09-02T12:08:00;27.10;69.40
1830;DHT22;914;48.118;11.600;2022-09-02T12:13:11;27.20;69.10
1830;DHT22;914;48.118;11.600;2022-09-02T12:18:44;27.60;69.90
1830;DHT22;914;48.118;11.600;2022-09-02T12:21:26;28.30;67.60
1830;DHT22;914;48.118;11.600;2022-09-02T12:26:19;26.50;66.10
1830;DHT22;914;48.118;11.600;2022-09-02T12:28:49;27.20;72.80
1830;DHT22;914;48.118;11.600;2022-09-02T12:33:54;27.40;64.90
1830;DHT22;914;48.118;11.600;2022-09-02T12:52:53;26.10;70.40
1830;DHT22;914;48.118;11.600;2022-09-02T12:55:33;25.50;69.70
1830;DHT22;914;48.118;11.600;2022-09-02T12:58:09;25.60;72.20
1830;DHT22;914;48.118;11.600;2022-09-02T13:03:42;26.70;68.60
1830;DHT22;914;48.118;11.600;2022-09-02T13:17:44;26.70;74.00
1830;DHT22;914;48.118;11.600;2022-09-02T13:31:58;27.10;69.70
1830;DHT22;914;48.118;11.600;2022-09-02T13:34:24;27.00;70.80
1830;DHT22;914;48.118;11.600;2022-09-02T13:36:50;27.20;65.90
1830;DHT22;914;48.118;11.600;2022-09-02T13:39:17;26.90;66.00
1830;DHT22;914;48.118;11.600;2022-09-02T13:41:44;26.80;66.70
1830;DHT22;914;48.118;11.600;2022-09-02T13:44:21;25.90;65.80
1830;DHT22;914;48.118;11.600;2022-09-02T13:46:52;25.70;67.70
1830;DHT22;914;48.118;11.600;2022-09-02T13:49:24;26.10;67.10
1830;DHT22;914;48.118;11.600;2022-09-02T13:51:53;26.60;69.00
1830;DHT22;914;48.118;11.600;2022-09-02T13:54:34;26.30;67.60
1830;DHT22;914;48.118;11.600;2022-09-02T13:57:03;26.70;70.40
1830;DHT22;914;48.118;11.600;2022-09-02T13:59:31;27.30;70.00
1830;DHT22;914;48.118;11.600;2022-09-02T14:01:57;27.30;64.10
1830;DHT22;914;48.118;11.600;2022-09-02T14:04:23;27.20;68.40
1830;DHT22;914;48.118;11.600;2022-09-02T14:06:50;26.90;65.70
1830;DHT22;914;48.118;11.600;2022-09-02T14:09:28;26.20;66.80
1830;DHT22;914;48.118;11.600;2022-09-02T14:11:55;25.40;70.60
1830;DHT22;914;48.118;11.600;2022-09-02T14:14:23;25.40;73.40
1830;DHT22;914;48.118;11.600;2022-09-02T14:16:49;25.40;72.20
1830;DHT22;914;48.118;11.600;2022-09-02T14:21:47;25.10;71.60
1830;DHT22;914;48.118;11.600;2022-09-02T14:24:17;24.80;70.70
1830;DHT22;914;48.118;11.600;2022-09-02T14:26:49;25.10;71.50
1830;DHT22;914;48.118;11.600;2022-09-02T14:29:18;25.20;74.10
1830;DHT22;914;48.118;11.600;2022-09-02T14:31:45;25.10;70.20
1830;DHT22;914;48.118;11.600;2022-09-02T14:34:35;24.00;71.10
1830;DHT22;914;48.118;11.600;2022-09-02T14:37:35;24.10;75.00
1830;DHT22;914;48.118;11.600;2022-09-02T14:42:26;23.70;70.70
1830;DHT22;914;48.118;11.600;2022-09-02T14:44:52;24.10;74.10
1830;DHT22;914;48.118;11.600;2022-09-02T14:47:19;23.60;74.50
1830;DHT22;914;48.118;11.600;2022-09-02T14:49:48;23.70;76.30
1830;DHT22;914;48.118;11.600;2022-09-02T14:54:51;23.50;72.80
1830;DHT22;914;48.118;11.600;2022-09-02T14:59:49;23.30;73.10
1830;DHT22;914;48.118;11.600;2022-09-02T15:02:22;23.50;75.20
1830;DHT22;914;48.118;11.600;2022-09-02T15:04:48;23.90;74.50
1830;DHT22;914;48.118;11.600;2022-09-02T15:07:14;24.00;72.70
1830;DHT22;914;48.118;11.600;2022-09-02T15:09:39;24.10;72.50
1830;DHT22;914;48.118;11.600;2022-09-02T15:12:07;23.90;73.00
1830;DHT22;914;48.118;11.600;2022-09-02T15:14:34;23.90;73.30
1830;DHT22;914;48.118;11.600;2022-09-02T15:17:01;24.00;72.70
1830;DHT22;914;48.118;11.600;2022-09-02T15:19:27;24.00;74.70
1830;DHT22;914;48.118;11.600;2022-09-02T15:21:53;24.00;73.60
1830;DHT22;914;48.118;11.600;2022-09-02T15:24:18;24.20;73.90
1830;DHT22;914;48.118;11.600;2022-09-02T15:26:44;24.20;74.10
1830;DHT22;914;48.118;11.600;2022-09-02T15:29:09;24.10;73.90
1830;DHT22;914;48.118;11.600;2022-09-02T15:31:35;24.10;72.70
1830;DHT22;914;48.118;11.600;2022-09-02T15:34:01;24.00;72.40
1830;DHT22;914;48.118;11.600;2022-09-02T15:36:27;23.70;70.70
1830;DHT22;914;48.118;11.600;2022-09-02T15:38:52;23.70;72.50
1830;DHT22;914;48.118;11.600;2022-09-02T15:41:20;23.00;71.30
1830;DHT22;914;48.118;11.600;2022-09-02T15:43:47;22.80;73.70
1830;DHT22;914;48.118;11.600;2022-09-02T15:46:32;23.10;75.40
1830;DHT22;914;48.118;11.600;2022-09-02T15:49:06;23.40;73.60
1830;DHT22;914;48.118;11.600;2022-09-02T15:51:33;23.80;73.50
1830;DHT22;914;48.118;11.600;2022-09-02T15:54:02;24.00;75.20
1830;DHT22;914;48.118;11.600;2022-09-02T15:56:30;23.80;73.30
1830;DHT22;914;48.118;11.600;2022-09-02T15:59:02;23.70;72.00
1830;DHT22;914;48.118;11.600;2022-09-02T16:01:30;23.30;71.00
1830;DHT22;914;48.118;11.600;2022-09-02T16:03:56;23.30;74.80
1830;DHT22;914;48.118;11.600;2022-09-02T16:06:26;23.50;73.50
1830;DHT22;914;48.118;11.600;2022-09-02T16:08:52;23.60;73.80
1830;DHT22;914;48.118;11.600;2022-09-02T16:11:18;23.80;73.50
1830;DHT22;914;48.118;11.600;2022-09-02T16:13:43;23.70;74.00
1830;DHT22;914;48.118;11.600;2022-09-02T16:16:11;23.60;72.20
1830;DHT22;914;48.118;11.600;2022-09-02T16:18:37;23.80;72.50
1830;DHT22;914;48.118;11.600;2022-09-02T16:21:04;23.90;72.50
1830;DHT22;914;48.118;11.600;2022-09-02T16:23:30;24.10;70.40
1830;DHT22;914;48.118;11.600;2022-09-02T16:28:34;24.20;73.60
1830;DHT22;914;48.118;11.600;2022-09-02T16:31:00;24.00;72.00
1830;DHT22;914;48.118;11.600;2022-09-02T16:33:26;23.70;70.70
1830;DHT22;914;48.118;11.600;2022-09-02T16:35:51;23.70;71.80
1830;DHT22;914;48.118;11.600;2022-09-02T16:38:17;23.70;73.90
1830;DHT22;914;48.118;11.600;2022-09-02T16:40:53;23.60;72.30
1830;DHT22;914;48.118;11.600;2022-09-02T16:43:19;23.50;72.90
1830;DHT22;914;48.118;11.600;2022-09-02T16:45:48;23.50;72.60
1830;DHT22;914;48.118;11.600;2022-09-02T16:48:15;23.60;73.00
1830;DHT22;914;48.118;11.600;2022-09-02T16:50:44;23.60;73.30
1830;DHT22;914;48.118;11.600;2022-09-02T16:53:09;23.50;74.90
1830;DHT22;914;48.118;11.600;2022-09-02T16:55:40;23.40;72.90
1830;DHT22;914;48.118;11.600;2022-09-02T16:58:05;23.40;72.40
1830;DHT22;914;48.118;11.600;2022-09-02T17:00:31;23.40;72.70
1830;DHT22;914;48.118;11.600;2022-09-02T17:02:57;23.30;73.80
1830;DHT22;914;48.118;11.600;2022-09-02T17:05:22;23.20;72.60
1830;DHT22;914;48.118;11.600;2022-09-02T17:07:48;23.10;71.90
1830;DHT22;914;48.118;11.600;2022-09-02T17:10:16;23.10;71.80
1830;DHT22;914;48.118;11.600;2022-09-02T17:12:41;23.00;73.40
1830;DHT22;914;48.118;11.600;2022-09-02T17:15:07;23.20;73.50
1830;DHT22;914;48.118;11.600;2022-09-02T17:17:33;22.90;73.10
1830;DHT22;914;48.118;11.600;2022-09-02T17:19:59;22.90;73.80
1830;DHT22;914;48.118;11.600;2022-09-02T17:22:24;22.90;76.30
1830;DHT22;914;48.118;11.600;2022-09-02T17:24:50;22.80;73.80
1830;DHT22;914;48.118;11.600;2022-09-02T17:27:15;22.90;74.10
1830;DHT22;914;48.118;11.600;2022-09-02T17:29:41;22.80;74.00
1830;DHT22;914;48.118;11.600;2022-09-02T17:32:07;22.80;74.70
1830;DHT22;914;48.118;11.600;2022-09-02T17:34:33;22.70;73.70
1830;DHT22;914;48.118;11.600;2022-09-02T17:36:58;22.70;75.10
1830;DHT22;914;48.118;11.600;2022-09-02T17:39:24;22.50;74.20
1830;DHT22;914;48.118;11.600;2022-09-02T17:41:51;22.50;74.20
1830;DHT22;914;48.118;11.600;2022-09-02T17:44:21;22.30;74.40
1830;DHT22;914;48.118;11.600;2022-09-02T17:46:47;22.30;75.60
1830;DHT22;914;48.118;11.600;2022-09-02T17:49:13;22.20;76.00
1830;DHT22;914;48.118;11.600;2022-09-02T17:51:39;22.20;76.80
1830;DHT22;914;48.118;11.600;2022-09-02T17:54:05;22.30;76.40
1830;DHT22;914;48.118;11.600;2022-09-02T18:00:12;22.30;75.30
1830;DHT22;914;48.118;11.600;2022-09-02T18:03:06;22.20;75.60
1830;DHT22;914;48.118;11.600;2022-09-02T18:05:50;22.20;77.20
1830;DHT22;914;48.118;11.600;2022-09-02T18:08:38;22.10;76.50
1830;DHT22;914;48.118;11.600;2022-09-02T18:11:08;22.00;77.70
1830;DHT22;914;48.118;11.600;2022-09-02T18:13:45;21.80;78.60
1830;DHT22;914;48.118;11.600;2022-09-02T18:19:11;22.10;78.60
1830;DHT22;914;48.118;11.600;2022-09-02T18:24:33;21.70;78.60
1830;DHT22;914;48.118;11.600;2022-09-02T18:27:15;21.60;79.60
1830;DHT22;914;48.118;11.600;2022-09-02T18:30:10;21.60;80.00
1830;DHT22;914;48.118;11.600;2022-09-02T18:35:40;21.40;79.70
1830;DHT22;914;48.118;11.600;2022-09-02T18:44:17;21.40;79.80
1830;DHT22;914;48.118;11.600;2022-09-02T18:46:58;21.50;80.30
1830;DHT22;914;48.118;11.600;2022-09-02T18:49:26;21.40;79.60
1830;DHT22;914;48.118;11.600;2022-09-02T18:51:55;21.20;79.90